createdAt,value
2022-09-15T00:04:03.993Z,57128.34
2022-09-15T00:09:06.959Z,57128.34
2022-09-15T00:14:09.090Z,57128.34
2022-09-15T00:19:11.653Z,57128.34
2022-09-15T00:24:14.359Z,57128.34
2022-09-15T00:29:16.202Z,57128.34
2022-09-15T00:34:17.675Z,57128.34
2022-09-15T00:39:19.196Z,57128.34
2022-09-15T00:44:23.378Z,57128.34
2022-09-15T00:49:30.332Z,57128.34
2022-09-15T00:54:39.670Z,57128.34
2022-09-15T00:59:42.594Z,57128.34
2022-09-15T01:04:45.355Z,57128.34
2022-09-15T01:09:57.730Z,57128.34
2022-09-15T01:15:02.708Z,57128.34
2022-09-15T01:20:47.081Z,57128.34
2022-09-15T01:25:49.283Z,57128.34
2022-09-15T01:31:14.244Z,57128.34
2022-09-15T01:36:35.965Z,57128.34
2022-09-15T01:41:42.940Z,57128.34
2022-09-15T01:46:48.678Z,57128.34
2022-09-15T01:51:53.543Z,57128.34
2022-09-15T01:56:57.308Z,57128.34
2022-09-15T02:02:12.737Z,57128.34
2022-09-15T02:07:20.508Z,57128.34
2022-09-15T02:12:42.260Z,57128.34
2022-09-15T02:17:54.209Z,57128.34
2022-09-15T02:23:01.486Z,57128.34
2022-09-15T02:28:07.836Z,57128.34
2022-09-15T02:33:19.697Z,57128.34
2022-09-15T02:38:21.646Z,57128.34
2022-09-15T02:43:23.840Z,57128.34
2022-09-15T02:48:25.323Z,57128.34
2022-09-15T02:53:28.163Z,57128.34
2022-09-15T02:58:31.217Z,57128.34
2022-09-15T03:03:34.961Z,57128.34
2022-09-15T03:08:37.028Z,57128.34
2022-09-15T03:13:39.449Z,57128.34
2022-09-15T03:18:41.551Z,57128.34
2022-09-15T03:23:43.083Z,57128.34
2022-09-15T03:28:44.938Z,57128.34
2022-09-15T03:33:49.169Z,57128.34
2022-09-15T03:38:51.923Z,57128.34
2022-09-15T03:43:54.103Z,57128.34
2022-09-15T03:48:55.994Z,57128.34
2022-09-15T03:53:57.469Z,57128.34
2022-09-15T03:59:01.986Z,57128.34
2022-09-15T04:04:03.469Z,57128.34
2022-09-15T04:09:05.056Z,57128.34
2022-09-15T04:14:06.823Z,57128.34
2022-09-15T04:19:09.134Z,57128.34
2022-09-15T04:24:10.699Z,57128.34
2022-09-15T04:29:15.704Z,57128.34
2022-09-15T04:34:18.212Z,57128.34
2022-09-15T04:39:20.694Z,57128.34
2022-09-15T04:44:22.395Z,57128.34
2022-09-15T04:49:24.747Z,57128.34
2022-09-15T04:54:27.162Z,57128.34
2022-09-15T04:59:30.122Z,57128.34
2022-09-15T05:04:32.595Z,57128.34
2022-09-15T05:09:34.624Z,57128.34
2022-09-15T05:14:36.860Z,57128.34
2022-09-15T05:19:38.730Z,57128.34
2022-09-15T05:24:40.447Z,57128.34
2022-09-15T05:29:43.379Z,57128.34
2022-09-15T05:34:44.932Z,57128.34
2022-09-15T05:39:46.446Z,57128.34
2022-09-15T05:44:47.956Z,57128.34
2022-09-15T05:49:49.719Z,57128.34
2022-09-15T05:54:54.603Z,57128.34
2022-09-15T05:59:58.947Z,57128.34
2022-09-15T06:05:00.776Z,57128.34
2022-09-15T06:10:03.975Z,57128.34
2022-09-15T06:15:07.297Z,57128.34
2022-09-15T06:20:09.947Z,57128.34
2022-09-15T06:25:13.568Z,57128.34
2022-09-15T06:30:15.462Z,57128.34
2022-09-15T06:35:17.370Z,57128.34
2022-09-15T06:40:19.701Z,57128.34
2022-09-15T06:45:21.995Z,57128.34
2022-09-15T06:50:23.769Z,57128.34
2022-09-15T06:55:25.356Z,57128.34
2022-09-15T07:00:28.468Z,57128.34
2022-09-15T07:05:29.977Z,57128.34
2022-09-15T07:10:32.176Z,57128.34
2022-09-15T07:15:34.004Z,57128.34
2022-09-15T07:20:40.630Z,57128.34
2022-09-15T07:25:44.859Z,57128.34
2022-09-15T07:30:51.311Z,57128.34
2022-09-15T07:35:53.286Z,57128.34
2022-09-15T07:40:54.995Z,57128.34
2022-09-15T07:45:58.104Z,57128.34
2022-09-15T07:51:00.053Z,57128.34
2022-09-15T07:56:01.705Z,57128.34
2022-09-15T08:01:07.325Z,57128.34
2022-09-15T08:06:10.657Z,57128.34
2022-09-15T08:11:19.208Z,57128.34
2022-09-15T08:16:22.966Z,57128.34
2022-09-15T08:21:24.792Z,57128.34
2022-09-15T08:26:28.642Z,57128.34
2022-09-15T08:31:30.246Z,57128.34
2022-09-15T08:36:33.149Z,57128.34
2022-09-15T08:41:53.700Z,57128.34
2022-09-15T08:47:19.584Z,57128.34
2022-09-15T08:52:46.723Z,57128.34
2022-09-15T08:57:48.830Z,57128.34
2022-09-15T09:03:13.130Z,57128.34
2022-09-15T09:08:38.042Z,57128.34
2022-09-15T09:13:50.472Z,57128.34
2022-09-15T09:19:22.850Z,57128.34
2022-09-15T09:24:32.897Z,57128.34
2022-09-15T09:29:39.934Z,57128.34
2022-09-15T09:34:54.331Z,57128.34
2022-09-15T09:39:56.204Z,57128.34
2022-09-15T09:44:58.050Z,57128.34
2022-09-15T09:49:59.854Z,57128.34
2022-09-15T09:55:03.042Z,57128.34
2022-09-15T10:00:04.919Z,57128.34
2022-09-15T10:05:08.438Z,57128.34
2022-09-15T10:10:21.812Z,57128.34
2022-09-15T10:15:25.962Z,57128.34
2022-09-15T10:20:32.666Z,57128.34
2022-09-15T10:25:58.205Z,57128.34
2022-09-15T10:31:05.261Z,57128.34
2022-09-15T10:36:11.827Z,57128.34
2022-09-15T10:41:34.952Z,57128.34
2022-09-15T10:46:56.455Z,57128.34
2022-09-15T10:52:32.387Z,57128.34
2022-09-15T10:57:52.004Z,57128.34
2022-09-15T11:03:22.262Z,57128.34
2022-09-15T11:08:46.338Z,57128.34
2022-09-15T11:13:56.957Z,57128.34
2022-09-15T11:18:58.682Z,57128.34
2022-09-15T11:24:17.261Z,57128.34
2022-09-15T11:29:42.324Z,57128.34
2022-09-15T11:34:54.639Z,57128.34
2022-09-15T11:40:13.652Z,57128.34
2022-09-15T11:45:45.379Z,57128.34
2022-09-15T11:50:51.581Z,57128.34
2022-09-15T11:56:30.731Z,57128.34
2022-09-15T12:02:09.580Z,57128.34
2022-09-15T12:07:20.045Z,57128.34
2022-09-15T12:12:22.715Z,57128.34
2022-09-15T12:17:40.167Z,57128.34
2022-09-15T12:22:43.508Z,57128.34
2022-09-15T12:33:54.695Z,57128.34
2022-09-15T12:38:56.558Z,57128.34
2022-09-15T12:44:15.057Z,57128.34
2022-09-15T12:49:18.955Z,57128.34
2022-09-15T12:54:28.551Z,57128.34
2022-09-15T12:59:30.092Z,57128.34
2022-09-15T13:04:54.663Z,57128.34
2022-09-15T13:10:08.220Z,57128.34
2022-09-15T13:15:16.189Z,57128.34
2022-09-15T13:20:25.871Z,57128.34
2022-09-15T13:25:30.197Z,57128.34
2022-09-15T13:31:05.397Z,57128.34
2022-09-15T13:36:15.967Z,57128.34
2022-09-15T13:41:36.275Z,57128.34
2022-09-15T13:47:16.939Z,57128.34
2022-09-15T13:52:18.255Z,57128.34
2022-09-15T13:58:54.466Z,57128.34
2022-09-15T14:02:45.606Z,57128.34
2022-09-15T14:08:15.241Z,57128.34
2022-09-15T14:13:19.970Z,57128.34
2022-09-15T14:18:21.476Z,57128.34
2022-09-15T14:23:22.920Z,57128.34
2022-09-15T14:28:34.606Z,57128.34
2022-09-15T14:33:39.782Z,57128.34
2022-09-15T14:38:41.263Z,57128.34
2022-09-15T14:43:42.886Z,57128.34
2022-09-15T14:48:44.587Z,57128.34
2022-09-15T14:53:50.970Z,57128.34
2022-09-15T14:59:04.225Z,57128.34
2022-09-15T15:04:11.576Z,57128.34
2022-09-15T15:09:21.516Z,57128.34
2022-09-15T15:19:38.661Z,57128.34
2022-09-15T15:24:43.397Z,57128.34
2022-09-15T15:29:48.016Z,57128.34
2022-09-15T15:35:01.166Z,57128.34
2022-09-15T15:40:07.226Z,57128.34
2022-09-15T15:45:09.228Z,57128.34
2022-09-15T15:50:20.746Z,57128.34
2022-09-15T15:55:24.958Z,57128.34
2022-09-15T16:00:32.632Z,57128.34
2022-09-15T16:05:34.501Z,57128.34
2022-09-15T16:10:43.745Z,57128.34
2022-09-15T16:15:46.021Z,57128.34
2022-09-15T16:20:47.670Z,57128.34
2022-09-15T16:26:01.542Z,57128.34
2022-09-15T16:31:03.092Z,57128.34
2022-09-15T16:36:08.075Z,57128.34
2022-09-15T16:41:15.376Z,57128.34
2022-09-15T16:46:17.246Z,57128.34
2022-09-15T16:51:29.507Z,57128.34
2022-09-15T16:56:32.273Z,57128.34
2022-09-15T17:01:33.795Z,57128.34
2022-09-15T17:06:35.330Z,57128.34
2022-09-15T17:11:36.849Z,57128.34
2022-09-15T17:16:38.655Z,57128.34
2022-09-15T17:21:47.147Z,100483.00
2022-09-15T17:26:48.647Z,100482.06
2022-09-15T17:31:50.140Z,100474.19
2022-09-15T17:36:51.761Z,100487.28
2022-09-15T17:41:53.344Z,100496.03
2022-09-15T17:46:55.371Z,100488.97
2022-09-15T17:51:56.890Z,100494.19
2022-09-15T17:56:58.432Z,100493.25
2022-09-15T18:01:59.936Z,100496.72
2022-09-15T18:07:01.418Z,100501.06
2022-09-15T18:12:03.332Z,100492.25
2022-09-15T18:17:04.895Z,100486.16
2022-09-15T18:22:06.619Z,100487.91
2022-09-15T18:27:08.178Z,100493.19
2022-09-15T18:32:09.700Z,100491.38
2022-09-15T18:37:11.168Z,100494.88
2022-09-15T18:42:12.827Z,100501.94
2022-09-15T18:47:14.387Z,100503.69
2022-09-15T18:52:15.819Z,100503.66
2022-09-15T18:57:17.434Z,100503.63
2022-09-15T19:02:19.023Z,100507.09
2022-09-15T19:07:22.308Z,100497.44
2022-09-15T19:12:26.579Z,100492.22
2022-09-15T19:17:28.065Z,100503.63
2022-09-15T19:22:29.619Z,100491.34
2022-09-15T19:27:31.264Z,100500.09
2022-09-15T19:32:33.797Z,100491.34
2022-09-15T19:37:37.311Z,100493.03
2022-09-15T19:42:40.277Z,100489.53
2022-09-15T19:47:41.851Z,100504.38
2022-09-15T19:52:43.576Z,100505.13
2022-09-15T19:57:46.333Z,100495.44
2022-09-15T20:02:48.522Z,100501.59
2022-09-15T20:07:50.379Z,100512.94
2022-09-15T20:12:52.069Z,100513.78
2022-09-15T20:17:53.585Z,100519.00
2022-09-15T20:22:55.231Z,100524.09
2022-09-15T20:27:56.734Z,100516.13
2022-09-15T20:32:58.243Z,100523.09
2022-09-15T20:37:59.800Z,100516.75
2022-09-15T20:43:01.243Z,100527.16
2022-09-15T20:48:03.321Z,100527.09
2022-09-15T20:53:04.847Z,100523.53
2022-09-15T20:58:07.903Z,100523.47
2022-09-15T21:03:09.440Z,100535.63
2022-09-15T21:08:11.717Z,100537.28
2022-09-15T21:13:13.172Z,100540.78
2022-09-15T21:18:14.632Z,100538.25
2022-09-15T21:23:16.356Z,100535.75
2022-09-15T21:28:17.812Z,100539.19
2022-09-15T21:33:20.875Z,100540.09
2022-09-15T21:38:22.363Z,100527.75
2022-09-15T21:43:23.838Z,100534.59
2022-09-15T21:48:27.152Z,100538.00
2022-09-15T21:53:29.267Z,100538.88
2022-09-15T21:58:42.400Z,100537.13
2022-09-15T22:03:49.495Z,100537.16
2022-09-15T22:08:51.013Z,100542.28
2022-09-15T22:13:52.731Z,100543.94
2022-09-15T22:18:55.574Z,100549.06
2022-09-15T22:23:59.431Z,100550.88
2022-09-15T22:29:01.971Z,100549.19
2022-09-15T22:34:04.245Z,100538.59
2022-09-15T22:39:06.322Z,100533.31
2022-09-15T22:44:17.825Z,100539.38
2022-09-15T22:49:19.755Z,100540.94
2022-09-15T22:54:21.276Z,100544.50
2022-09-15T22:59:22.863Z,100533.06
2022-09-15T23:04:24.423Z,100529.53
2022-09-15T23:09:26.334Z,100540.00
2022-09-15T23:14:27.824Z,100540.78
2022-09-15T23:19:29.291Z,100536.28
2022-09-15T23:24:32.796Z,100527.53
2022-09-15T23:29:34.261Z,100517.84
2022-09-15T23:34:35.812Z,100522.13
2022-09-15T23:39:37.256Z,100523.78
2022-09-15T23:44:38.731Z,100517.59
2022-09-15T23:49:40.271Z,100525.34
2022-09-15T23:54:41.851Z,100530.56
2022-09-15T23:59:43.328Z,100534.91
